Terminal Aerodrome Forecast
Issued by NWS

Home | Current Version | Previous Version | Text Only | Print | Product List | Glossary On
Versions: 1 2 3 4 5 6 7 8 9 10 11 12 13 14
000
FTUS43 KLSX 241100
TAFSUS
TAF
KSUS 241130Z 2412/2512 30005KT P6SM OVC010
     FM241400 30008KT P6SM OVC010
     FM241900 28011G17KT P6SM OVC015
     FM250000 26008KT P6SM OVC015
     FM250900 21004KT P6SM SCT020=

USA.gov is the U.S. government's official web portal to all federal, state and local government web resources and services.